sensor_id;sensor_type;location;lat;lon;timestamp;P1;durP1;ratioP1;P2;durP2;ratioP2
36817;SDS011;22761;51.542;16.450;2022-12-10T00:04:01;54.13;;;28.07;;
36817;SDS011;22761;51.542;16.450;2022-12-10T00:06:31;52.43;;;28.40;;
36817;SDS011;22761;51.542;16.450;2022-12-10T00:11:28;49.30;;;26.27;;
36817;SDS011;22761;51.542;16.450;2022-12-10T00:13:56;51.27;;;27.37;;
36817;SDS011;22761;51.542;16.450;2022-12-10T00:16:25;45.87;;;26.90;;
36817;SDS011;22761;51.542;16.450;2022-12-10T00:18:54;51.03;;;26.03;;
36817;SDS011;22761;51.542;16.450;2022-12-10T00:21:22;49.23;;;26.07;;
36817;SDS011;22761;51.542;16.450;2022-12-10T00:23:53;49.07;;;27.27;;
36817;SDS011;22761;51.542;16.450;2022-12-10T00:26:21;48.93;;;26.10;;
36817;SDS011;22761;51.542;16.450;2022-12-10T00:28:52;50.10;;;26.70;;
36817;SDS011;22761;51.542;16.450;2022-12-10T00:31:21;48.57;;;25.97;;
36817;SDS011;22761;51.542;16.450;2022-12-10T00:33:58;47.07;;;26.13;;
36817;SDS011;22761;51.542;16.450;2022-12-10T00:36:29;47.87;;;26.73;;
36817;SDS011;22761;51.542;16.450;2022-12-10T00:39:00;49.70;;;25.70;;
36817;SDS011;22761;51.542;16.450;2022-12-10T00:41:28;43.83;;;24.47;;
36817;SDS011;22761;51.542;16.450;2022-12-10T00:43:55;47.30;;;25.83;;
36817;SDS011;22761;51.542;16.450;2022-12-10T00:46:23;47.13;;;25.53;;
36817;SDS011;22761;51.542;16.450;2022-12-10T00:48:50;45.43;;;24.73;;
36817;SDS011;22761;51.542;16.450;2022-12-10T00:51:19;48.87;;;25.97;;
36817;SDS011;22761;51.542;16.450;2022-12-10T00:53:50;43.13;;;23.97;;
36817;SDS011;22761;51.542;16.450;2022-12-10T00:56:21;49.15;;;26.57;;
36817;SDS011;22761;51.542;16.450;2022-12-10T00:58:52;47.43;;;25.83;;
36817;SDS011;22761;51.542;16.450;2022-12-10T01:01:22;51.20;;;25.77;;
36817;SDS011;22761;51.542;16.450;2022-12-10T01:04:00;50.87;;;27.50;;
36817;SDS011;22761;51.542;16.450;2022-12-10T01:06:40;49.17;;;26.23;;
36817;SDS011;22761;51.542;16.450;2022-12-10T01:09:11;51.03;;;26.47;;
36817;SDS011;22761;51.542;16.450;2022-12-10T01:11:41;47.78;;;27.02;;
36817;SDS011;22761;51.542;16.450;2022-12-10T01:14:12;47.78;;;26.68;;
36817;SDS011;22761;51.542;16.450;2022-12-10T01:16:45;49.10;;;25.70;;
36817;SDS011;22761;51.542;16.450;2022-12-10T01:19:12;52.40;;;27.10;;
36817;SDS011;22761;51.542;16.450;2022-12-10T01:21:39;52.17;;;27.27;;
36817;SDS011;22761;51.542;16.450;2022-12-10T01:24:07;49.87;;;27.10;;
36817;SDS011;22761;51.542;16.450;2022-12-10T01:26:34;55.20;;;27.10;;
36817;SDS011;22761;51.542;16.450;2022-12-10T01:29:03;55.50;;;27.90;;
36817;SDS011;22761;51.542;16.450;2022-12-10T01:31:31;51.63;;;27.47;;
36817;SDS011;22761;51.542;16.450;2022-12-10T01:34:02;51.40;;;26.53;;
36817;SDS011;22761;51.542;16.450;2022-12-10T01:36:40;52.33;;;27.45;;
36817;SDS011;22761;51.542;16.450;2022-12-10T01:39:07;46.67;;;26.10;;
36817;SDS011;22761;51.542;16.450;2022-12-10T01:41:37;49.47;;;27.60;;
36817;SDS011;22761;51.542;16.450;2022-12-10T01:46:42;49.67;;;26.87;;
36817;SDS011;22761;51.542;16.450;2022-12-10T01:49:16;52.50;;;27.57;;
36817;SDS011;22761;51.542;16.450;2022-12-10T01:51:53;49.83;;;29.35;;
36817;SDS011;22761;51.542;16.450;2022-12-10T01:54:27;53.23;;;28.30;;
36817;SDS011;22761;51.542;16.450;2022-12-10T01:57:04;55.13;;;27.07;;
36817;SDS011;22761;51.542;16.450;2022-12-10T01:59:38;58.27;;;29.50;;
36817;SDS011;22761;51.542;16.450;2022-12-10T02:02:17;52.17;;;28.83;;
36817;SDS011;22761;51.542;16.450;2022-12-10T02:13:33;57.57;;;29.23;;
36817;SDS011;22761;51.542;16.450;2022-12-10T02:18:49;53.90;;;28.13;;
36817;SDS011;22761;51.542;16.450;2022-12-10T02:21:26;60.37;;;30.17;;
36817;SDS011;22761;51.542;16.450;2022-12-10T02:23:57;53.53;;;28.33;;
36817;SDS011;22761;51.542;16.450;2022-12-10T02:26:33;54.70;;;29.07;;
36817;SDS011;22761;51.542;16.450;2022-12-10T02:29:16;53.90;;;29.27;;
36817;SDS011;22761;51.542;16.450;2022-12-10T02:31:51;52.43;;;28.70;;
36817;SDS011;22761;51.542;16.450;2022-12-10T02:34:19;57.73;;;29.60;;
36817;SDS011;22761;51.542;16.450;2022-12-10T02:36:49;56.48;;;29.15;;
36817;SDS011;22761;51.542;16.450;2022-12-10T02:39:20;60.63;;;31.87;;
36817;SDS011;22761;51.542;16.450;2022-12-10T02:41:54;57.30;;;30.23;;
36817;SDS011;22761;51.542;16.450;2022-12-10T02:44:23;60.07;;;29.87;;
36817;SDS011;22761;51.542;16.450;2022-12-10T02:46:55;61.83;;;31.57;;
36817;SDS011;22761;51.542;16.450;2022-12-10T02:49:26;57.93;;;29.93;;
36817;SDS011;22761;51.542;16.450;2022-12-10T02:51:57;56.47;;;31.53;;
36817;SDS011;22761;51.542;16.450;2022-12-10T03:00:07;61.70;;;32.13;;
36817;SDS011;22761;51.542;16.450;2022-12-10T03:02:50;58.83;;;31.57;;
36817;SDS011;22761;51.542;16.450;2022-12-10T03:05:44;58.23;;;31.80;;
36817;SDS011;22761;51.542;16.450;2022-12-10T03:09:12;63.03;;;32.67;;
36817;SDS011;22761;51.542;16.450;2022-12-10T03:11:30;60.47;;;32.07;;
36817;SDS011;22761;51.542;16.450;2022-12-10T03:13:59;62.77;;;31.80;;
36817;SDS011;22761;51.542;16.450;2022-12-10T03:16:36;65.87;;;35.53;;
36817;SDS011;22761;51.542;16.450;2022-12-10T03:19:10;62.23;;;33.77;;
36817;SDS011;22761;51.542;16.450;2022-12-10T03:21:40;64.23;;;32.47;;
36817;SDS011;22761;51.542;16.450;2022-12-10T03:24:10;67.20;;;33.67;;
36817;SDS011;22761;51.542;16.450;2022-12-10T03:26:37;68.50;;;34.43;;
36817;SDS011;22761;51.542;16.450;2022-12-10T03:29:08;58.68;;;32.33;;
36817;SDS011;22761;51.542;16.450;2022-12-10T03:31:40;66.10;;;33.40;;
36817;SDS011;22761;51.542;16.450;2022-12-10T03:34:09;67.63;;;35.33;;
36817;SDS011;22761;51.542;16.450;2022-12-10T03:36:37;68.33;;;34.63;;
36817;SDS011;22761;51.542;16.450;2022-12-10T03:39:05;60.47;;;32.17;;
36817;SDS011;22761;51.542;16.450;2022-12-10T03:41:32;63.67;;;33.77;;
36817;SDS011;22761;51.542;16.450;2022-12-10T03:44:00;59.33;;;32.20;;
36817;SDS011;22761;51.542;16.450;2022-12-10T03:46:28;63.07;;;32.93;;
36817;SDS011;22761;51.542;16.450;2022-12-10T03:48:58;61.77;;;32.60;;
36817;SDS011;22761;51.542;16.450;2022-12-10T03:51:27;64.30;;;33.05;;
36817;SDS011;22761;51.542;16.450;2022-12-10T03:53:54;60.33;;;32.47;;
36817;SDS011;22761;51.542;16.450;2022-12-10T03:56:22;60.40;;;32.97;;
36817;SDS011;22761;51.542;16.450;2022-12-10T03:58:49;61.87;;;32.83;;
36817;SDS011;22761;51.542;16.450;2022-12-10T04:01:16;58.97;;;32.53;;
36817;SDS011;22761;51.542;16.450;2022-12-10T04:03:43;64.00;;;34.07;;
36817;SDS011;22761;51.542;16.450;2022-12-10T04:06:17;58.83;;;31.93;;
36817;SDS011;22761;51.542;16.450;2022-12-10T04:08:43;56.43;;;30.63;;
36817;SDS011;22761;51.542;16.450;2022-12-10T04:11:12;59.17;;;30.93;;
36817;SDS011;22761;51.542;16.450;2022-12-10T04:13:44;56.13;;;32.55;;
36817;SDS011;22761;51.542;16.450;2022-12-10T04:16:30;57.73;;;31.00;;
36817;SDS011;22761;51.542;16.450;2022-12-10T04:19:09;57.07;;;31.33;;
36817;SDS011;22761;51.542;16.450;2022-12-10T04:24:28;55.13;;;29.03;;
36817;SDS011;22761;51.542;16.450;2022-12-10T04:27:06;55.83;;;29.83;;
36817;SDS011;22761;51.542;16.450;2022-12-10T04:29:40;52.63;;;28.97;;
36817;SDS011;22761;51.542;16.450;2022-12-10T04:32:07;55.03;;;29.73;;
36817;SDS011;22761;51.542;16.450;2022-12-10T04:34:34;55.00;;;30.13;;
36817;SDS011;22761;51.542;16.450;2022-12-10T04:37:02;56.60;;;30.30;;
36817;SDS011;22761;51.542;16.450;2022-12-10T04:39:29;56.30;;;30.50;;
36817;SDS011;22761;51.542;16.450;2022-12-10T04:41:57;52.13;;;28.93;;
36817;SDS011;22761;51.542;16.450;2022-12-10T04:44:26;52.30;;;29.20;;
36817;SDS011;22761;51.542;16.450;2022-12-10T04:46:53;53.27;;;28.80;;
36817;SDS011;22761;51.542;16.450;2022-12-10T04:49:20;52.47;;;30.20;;
36817;SDS011;22761;51.542;16.450;2022-12-10T04:51:48;50.23;;;28.93;;
36817;SDS011;22761;51.542;16.450;2022-12-10T04:54:16;52.20;;;29.07;;
36817;SDS011;22761;51.542;16.450;2022-12-10T04:56:43;46.97;;;27.97;;
36817;SDS011;22761;51.542;16.450;2022-12-10T04:59:11;53.20;;;29.63;;
36817;SDS011;22761;51.542;16.450;2022-12-10T05:01:38;54.20;;;29.47;;
36817;SDS011;22761;51.542;16.450;2022-12-10T05:04:07;51.50;;;27.77;;
36817;SDS011;22761;51.542;16.450;2022-12-10T05:06:37;54.40;;;28.80;;
36817;SDS011;22761;51.542;16.450;2022-12-10T05:09:04;50.30;;;30.13;;
36817;SDS011;22761;51.542;16.450;2022-12-10T05:11:32;50.37;;;27.80;;
36817;SDS011;22761;51.542;16.450;2022-12-10T05:14:00;51.83;;;27.93;;
36817;SDS011;22761;51.542;16.450;2022-12-10T05:16:28;104.77;;;45.50;;
36817;SDS011;22761;51.542;16.450;2022-12-10T05:18:58;63.05;;;31.55;;
36817;SDS011;22761;51.542;16.450;2022-12-10T05:21:28;54.30;;;28.07;;
36817;SDS011;22761;51.542;16.450;2022-12-10T05:24:14;54.43;;;28.70;;
36817;SDS011;22761;51.542;16.450;2022-12-10T05:26:42;50.00;;;28.47;;
36817;SDS011;22761;51.542;16.450;2022-12-10T05:29:09;54.17;;;28.77;;
36817;SDS011;22761;51.542;16.450;2022-12-10T05:31:38;46.67;;;25.77;;
36817;SDS011;22761;51.542;16.450;2022-12-10T05:34:05;51.77;;;28.43;;
36817;SDS011;22761;51.542;16.450;2022-12-10T05:36:33;51.30;;;28.60;;
36817;SDS011;22761;51.542;16.450;2022-12-10T05:39:01;52.57;;;27.87;;
36817;SDS011;22761;51.542;16.450;2022-12-10T05:41:29;51.47;;;28.23;;
36817;SDS011;22761;51.542;16.450;2022-12-10T05:43:59;51.97;;;29.70;;
36817;SDS011;22761;51.542;16.450;2022-12-10T05:46:28;54.47;;;30.17;;
36817;SDS011;22761;51.542;16.450;2022-12-10T05:51:26;60.10;;;30.37;;
36817;SDS011;22761;51.542;16.450;2022-12-10T05:53:57;57.93;;;30.87;;
36817;SDS011;22761;51.542;16.450;2022-12-10T05:56:27;75.65;;;37.70;;
36817;SDS011;22761;51.542;16.450;2022-12-10T05:58:55;51.30;;;27.33;;
36817;SDS011;22761;51.542;16.450;2022-12-10T06:01:26;64.03;;;34.07;;
36817;SDS011;22761;51.542;16.450;2022-12-10T06:03:58;54.87;;;29.07;;
36817;SDS011;22761;51.542;16.450;2022-12-10T06:06:28;51.13;;;27.62;;
36817;SDS011;22761;51.542;16.450;2022-12-10T06:08:57;68.47;;;33.60;;
36817;SDS011;22761;51.542;16.450;2022-12-10T06:11:25;60.33;;;30.90;;
36817;SDS011;22761;51.542;16.450;2022-12-10T06:13:54;63.33;;;33.53;;
36817;SDS011;22761;51.542;16.450;2022-12-10T06:16:23;54.30;;;29.67;;
36817;SDS011;22761;51.542;16.450;2022-12-10T06:18:52;49.47;;;27.70;;
36817;SDS011;22761;51.542;16.450;2022-12-10T06:21:19;46.97;;;26.77;;
36817;SDS011;22761;51.542;16.450;2022-12-10T06:23:48;76.20;;;36.03;;
36817;SDS011;22761;51.542;16.450;2022-12-10T06:26:22;47.37;;;26.23;;
36817;SDS011;22761;51.542;16.450;2022-12-10T06:28:51;46.73;;;25.97;;
36817;SDS011;22761;51.542;16.450;2022-12-10T06:31:20;49.07;;;27.43;;
36817;SDS011;22761;51.542;16.450;2022-12-10T06:33:48;55.00;;;28.50;;
36817;SDS011;22761;51.542;16.450;2022-12-10T06:36:18;44.90;;;25.37;;
36817;SDS011;22761;51.542;16.450;2022-12-10T06:38:46;45.73;;;24.73;;
36817;SDS011;22761;51.542;16.450;2022-12-10T06:41:15;52.47;;;27.03;;
36817;SDS011;22761;51.542;16.450;2022-12-10T06:43:44;72.03;;;36.23;;
36817;SDS011;22761;51.542;16.450;2022-12-10T06:46:12;48.93;;;27.77;;
36817;SDS011;22761;51.542;16.450;2022-12-10T06:48:42;69.82;;;34.55;;
36817;SDS011;22761;51.542;16.450;2022-12-10T06:51:10;50.77;;;26.00;;
36817;SDS011;22761;51.542;16.450;2022-12-10T06:53:40;48.17;;;25.48;;
36817;SDS011;22761;51.542;16.450;2022-12-10T06:56:09;48.33;;;25.97;;
36817;SDS011;22761;51.542;16.450;2022-12-10T06:58:42;83.10;;;40.60;;
36817;SDS011;22761;51.542;16.450;2022-12-10T07:01:11;110.70;;;51.83;;
36817;SDS011;22761;51.542;16.450;2022-12-10T07:03:49;48.77;;;27.13;;
36817;SDS011;22761;51.542;16.450;2022-12-10T07:06:22;94.27;;;48.40;;
36817;SDS011;22761;51.542;16.450;2022-12-10T07:08:50;84.83;;;42.67;;
36817;SDS011;22761;51.542;16.450;2022-12-10T07:11:18;46.97;;;26.07;;
36817;SDS011;22761;51.542;16.450;2022-12-10T07:13:48;43.73;;;24.37;;
36817;SDS011;22761;51.542;16.450;2022-12-10T07:16:17;46.60;;;26.17;;
36817;SDS011;22761;51.542;16.450;2022-12-10T07:18:47;47.13;;;24.87;;
36817;SDS011;22761;51.542;16.450;2022-12-10T07:21:20;47.10;;;25.53;;
36817;SDS011;22761;51.542;16.450;2022-12-10T07:23:53;47.30;;;26.30;;
36817;SDS011;22761;51.542;16.450;2022-12-10T07:26:24;41.07;;;22.90;;
36817;SDS011;22761;51.542;16.450;2022-12-10T07:28:53;40.38;;;23.05;;
36817;SDS011;22761;51.542;16.450;2022-12-10T07:31:21;49.67;;;26.10;;
36817;SDS011;22761;51.542;16.450;2022-12-10T07:33:49;44.37;;;25.07;;
36817;SDS011;22761;51.542;16.450;2022-12-10T07:36:20;43.83;;;24.60;;
36817;SDS011;22761;51.542;16.450;2022-12-10T07:38:49;41.57;;;23.30;;
36817;SDS011;22761;51.542;16.450;2022-12-10T07:41:18;39.53;;;23.63;;
36817;SDS011;22761;51.542;16.450;2022-12-10T07:43:46;38.90;;;22.20;;
36817;SDS011;22761;51.542;16.450;2022-12-10T07:46:19;38.17;;;22.70;;
36817;SDS011;22761;51.542;16.450;2022-12-10T07:48:45;41.50;;;23.90;;
36817;SDS011;22761;51.542;16.450;2022-12-10T07:51:13;39.93;;;23.43;;
36817;SDS011;22761;51.542;16.450;2022-12-10T07:53:42;51.77;;;25.33;;
36817;SDS011;22761;51.542;16.450;2022-12-10T07:56:09;42.13;;;21.70;;
36817;SDS011;22761;51.542;16.450;2022-12-10T07:58:37;42.80;;;23.33;;
36817;SDS011;22761;51.542;16.450;2022-12-10T08:01:10;42.00;;;22.70;;
36817;SDS011;22761;51.542;16.450;2022-12-10T08:03:41;39.13;;;22.23;;
36817;SDS011;22761;51.542;16.450;2022-12-10T08:06:10;37.07;;;21.97;;
36817;SDS011;22761;51.542;16.450;2022-12-10T08:08:40;38.83;;;21.63;;
36817;SDS011;22761;51.542;16.450;2022-12-10T08:11:08;37.87;;;21.23;;
36817;SDS011;22761;51.542;16.450;2022-12-10T08:13:35;37.47;;;21.20;;
36817;SDS011;22761;51.542;16.450;2022-12-10T08:16:04;41.87;;;24.13;;
36817;SDS011;22761;51.542;16.450;2022-12-10T08:18:39;40.27;;;22.80;;
36817;SDS011;22761;51.542;16.450;2022-12-10T08:21:12;41.47;;;23.13;;
36817;SDS011;22761;51.542;16.450;2022-12-10T08:23:45;42.20;;;23.33;;
36817;SDS011;22761;51.542;16.450;2022-12-10T08:26:14;40.03;;;21.50;;
36817;SDS011;22761;51.542;16.450;2022-12-10T08:28:48;44.50;;;24.77;;
36817;SDS011;22761;51.542;16.450;2022-12-10T08:31:17;41.77;;;23.57;;
36817;SDS011;22761;51.542;16.450;2022-12-10T08:33:46;43.65;;;23.35;;
36817;SDS011;22761;51.542;16.450;2022-12-10T08:36:14;38.37;;;21.63;;
36817;SDS011;22761;51.542;16.450;2022-12-10T08:38:43;42.85;;;22.77;;
36817;SDS011;22761;51.542;16.450;2022-12-10T08:41:12;43.03;;;23.63;;
36817;SDS011;22761;51.542;16.450;2022-12-10T08:43:45;44.53;;;24.10;;
36817;SDS011;22761;51.542;16.450;2022-12-10T08:46:14;44.13;;;22.90;;
36817;SDS011;22761;51.542;16.450;2022-12-10T08:48:42;42.93;;;22.97;;
36817;SDS011;22761;51.542;16.450;2022-12-10T08:51:11;52.60;;;26.37;;
36817;SDS011;22761;51.542;16.450;2022-12-10T08:53:42;44.97;;;23.47;;
36817;SDS011;22761;51.542;16.450;2022-12-10T08:56:10;43.83;;;22.53;;
36817;SDS011;22761;51.542;16.450;2022-12-10T08:58:37;41.77;;;22.00;;
36817;SDS011;22761;51.542;16.450;2022-12-10T09:01:06;46.27;;;23.00;;
36817;SDS011;22761;51.542;16.450;2022-12-10T09:03:37;40.40;;;21.20;;
36817;SDS011;22761;51.542;16.450;2022-12-10T09:06:06;48.20;;;24.40;;
36817;SDS011;22761;51.542;16.450;2022-12-10T09:08:43;40.37;;;21.93;;
36817;SDS011;22761;51.542;16.450;2022-12-10T09:11:16;42.73;;;22.70;;
36817;SDS011;22761;51.542;16.450;2022-12-10T09:13:46;39.60;;;21.63;;
36817;SDS011;22761;51.542;16.450;2022-12-10T09:16:13;43.53;;;23.10;;
36817;SDS011;22761;51.542;16.450;2022-12-10T09:18:41;42.97;;;22.80;;
36817;SDS011;22761;51.542;16.450;2022-12-10T09:21:09;40.63;;;22.30;;
36817;SDS011;22761;51.542;16.450;2022-12-10T09:23:40;46.07;;;23.77;;
36817;SDS011;22761;51.542;16.450;2022-12-10T09:26:08;43.53;;;23.10;;
36817;SDS011;22761;51.542;16.450;2022-12-10T09:28:38;40.23;;;22.30;;
36817;SDS011;22761;51.542;16.450;2022-12-10T09:31:06;42.33;;;22.80;;
36817;SDS011;22761;51.542;16.450;2022-12-10T09:33:35;40.00;;;22.33;;
36817;SDS011;22761;51.542;16.450;2022-12-10T09:36:05;47.30;;;24.18;;
36817;SDS011;22761;51.542;16.450;2022-12-10T09:38:37;43.27;;;21.93;;
36817;SDS011;22761;51.542;16.450;2022-12-10T09:43:56;40.50;;;21.60;;
36817;SDS011;22761;51.542;16.450;2022-12-10T09:49:21;44.97;;;23.57;;
36817;SDS011;22761;51.542;16.450;2022-12-10T09:52:25;41.73;;;22.87;;
36817;SDS011;22761;51.542;16.450;2022-12-10T09:54:59;45.97;;;23.13;;
36817;SDS011;22761;51.542;16.450;2022-12-10T09:57:38;46.87;;;23.53;;
36817;SDS011;22761;51.542;16.450;2022-12-10T10:00:17;43.45;;;21.33;;
36817;SDS011;22761;51.542;16.450;2022-12-10T10:03:02;45.53;;;22.97;;
36817;SDS011;22761;51.542;16.450;2022-12-10T10:05:40;45.30;;;22.37;;
36817;SDS011;22761;51.542;16.450;2022-12-10T10:08:33;44.30;;;23.47;;
36817;SDS011;22761;51.542;16.450;2022-12-10T10:11:19;45.00;;;23.70;;
36817;SDS011;22761;51.542;16.450;2022-12-10T10:13:55;43.50;;;23.47;;
36817;SDS011;22761;51.542;16.450;2022-12-10T10:17:16;45.30;;;22.77;;
36817;SDS011;22761;51.542;16.450;2022-12-10T10:19:24;46.45;;;23.32;;
36817;SDS011;22761;51.542;16.450;2022-12-10T10:21:54;42.20;;;22.50;;
36817;SDS011;22761;51.542;16.450;2022-12-10T10:24:28;45.40;;;24.30;;
36817;SDS011;22761;51.542;16.450;2022-12-10T10:27:14;45.63;;;23.33;;
36817;SDS011;22761;51.542;16.450;2022-12-10T10:29:44;41.33;;;22.77;;
36817;SDS011;22761;51.542;16.450;2022-12-10T10:32:21;44.43;;;23.93;;
36817;SDS011;22761;51.542;16.450;2022-12-10T10:34:58;44.83;;;24.43;;
36817;SDS011;22761;51.542;16.450;2022-12-10T10:37:29;46.23;;;24.60;;
36817;SDS011;22761;51.542;16.450;2022-12-10T10:39:59;40.47;;;23.30;;
36817;SDS011;22761;51.542;16.450;2022-12-10T10:48:06;45.98;;;24.18;;
36817;SDS011;22761;51.542;16.450;2022-12-10T10:50:52;43.27;;;23.70;;
36817;SDS011;22761;51.542;16.450;2022-12-10T10:58:52;47.13;;;24.53;;
36817;SDS011;22761;51.542;16.450;2022-12-10T11:04:22;45.50;;;23.30;;
36817;SDS011;22761;51.542;16.450;2022-12-10T11:06:53;42.93;;;22.43;;
36817;SDS011;22761;51.542;16.450;2022-12-10T11:09:27;47.37;;;25.17;;
36817;SDS011;22761;51.542;16.450;2022-12-10T11:12:01;45.87;;;24.13;;
36817;SDS011;22761;51.542;16.450;2022-12-10T11:14:35;48.83;;;23.33;;
36817;SDS011;22761;51.542;16.450;2022-12-10T11:20:16;44.13;;;24.03;;
36817;SDS011;22761;51.542;16.450;2022-12-10T11:34:03;62.50;;;31.10;;
36817;SDS011;22761;51.542;16.450;2022-12-10T11:37:11;57.90;;;31.77;;
36817;SDS011;22761;51.542;16.450;2022-12-10T11:43:02;48.63;;;25.10;;
36817;SDS011;22761;51.542;16.450;2022-12-10T11:49:22;42.23;;;24.17;;
36817;SDS011;22761;51.542;16.450;2022-12-10T11:55:13;68.03;;;34.37;;
36817;SDS011;22761;51.542;16.450;2022-12-10T12:01:14;50.63;;;25.97;;
36817;SDS011;22761;51.542;16.450;2022-12-10T12:03:56;51.90;;;25.87;;
36817;SDS011;22761;51.542;16.450;2022-12-10T12:11:59;45.57;;;24.10;;
36817;SDS011;22761;51.542;16.450;2022-12-10T12:14:29;53.37;;;28.10;;
36817;SDS011;22761;51.542;16.450;2022-12-10T12:22:59;64.17;;;34.07;;
36817;SDS011;22761;51.542;16.450;2022-12-10T12:25:35;51.30;;;27.13;;
36817;SDS011;22761;51.542;16.450;2022-12-10T12:30:58;50.63;;;25.63;;
36817;SDS011;22761;51.542;16.450;2022-12-10T12:33:35;55.67;;;30.57;;
36817;SDS011;22761;51.542;16.450;2022-12-10T12:36:21;49.85;;;27.10;;
36817;SDS011;22761;51.542;16.450;2022-12-10T12:44:47;88.17;;;40.90;;
36817;SDS011;22761;51.542;16.450;2022-12-10T12:47:39;60.53;;;31.77;;
36817;SDS011;22761;51.542;16.450;2022-12-10T12:50:33;79.12;;;36.38;;
36817;SDS011;22761;51.542;16.450;2022-12-10T12:53:15;75.33;;;34.80;;
36817;SDS011;22761;51.542;16.450;2022-12-10T12:55:56;72.73;;;33.90;;
36817;SDS011;22761;51.542;16.450;2022-12-10T13:02:14;65.70;;;32.40;;
36817;SDS011;22761;51.542;16.450;2022-12-10T13:04:04;59.90;;;30.70;;
36817;SDS011;22761;51.542;16.450;2022-12-10T13:06:34;58.57;;;29.67;;
36817;SDS011;22761;51.542;16.450;2022-12-10T13:11:45;54.23;;;27.90;;
36817;SDS011;22761;51.542;16.450;2022-12-10T13:14:32;59.50;;;30.00;;
36817;SDS011;22761;51.542;16.450;2022-12-10T13:17:34;75.30;;;34.67;;
36817;SDS011;22761;51.542;16.450;2022-12-10T13:25:57;51.67;;;28.63;;
36817;SDS011;22761;51.542;16.450;2022-12-10T13:33:52;89.97;;;39.17;;
36817;SDS011;22761;51.542;16.450;2022-12-10T13:36:34;91.47;;;41.00;;
36817;SDS011;22761;51.542;16.450;2022-12-10T13:41:42;70.73;;;33.67;;
36817;SDS011;22761;51.542;16.450;2022-12-10T13:53:41;66.42;;;35.28;;
36817;SDS011;22761;51.542;16.450;2022-12-10T14:01:54;55.90;;;30.23;;
36817;SDS011;22761;51.542;16.450;2022-12-10T14:04:44;57.00;;;31.67;;
36817;SDS011;22761;51.542;16.450;2022-12-10T14:07:17;58.03;;;29.70;;
36817;SDS011;22761;51.542;16.450;2022-12-10T14:09:46;112.97;;;48.93;;
36817;SDS011;22761;51.542;16.450;2022-12-10T14:12:28;95.33;;;43.23;;
36817;SDS011;22761;51.542;16.450;2022-12-10T14:14:55;66.77;;;34.33;;
36817;SDS011;22761;51.542;16.450;2022-12-10T14:17:36;64.45;;;33.78;;
36817;SDS011;22761;51.542;16.450;2022-12-10T14:20:07;69.37;;;34.33;;
36817;SDS011;22761;51.542;16.450;2022-12-10T14:22:43;85.57;;;41.13;;
36817;SDS011;22761;51.542;16.450;2022-12-10T14:25:16;72.07;;;34.97;;
36817;SDS011;22761;51.542;16.450;2022-12-10T14:27:52;77.40;;;37.13;;
36817;SDS011;22761;51.542;16.450;2022-12-10T14:30:19;73.33;;;33.88;;
36817;SDS011;22761;51.542;16.450;2022-12-10T14:32:56;72.63;;;34.27;;
36817;SDS011;22761;51.542;16.450;2022-12-10T14:35:26;63.28;;;32.93;;
36817;SDS011;22761;51.542;16.450;2022-12-10T14:37:56;60.55;;;32.23;;
36817;SDS011;22761;51.542;16.450;2022-12-10T14:43:17;59.43;;;31.57;;
36817;SDS011;22761;51.542;16.450;2022-12-10T14:45:48;68.30;;;33.80;;
36817;SDS011;22761;51.542;16.450;2022-12-10T14:48:22;62.37;;;31.87;;
36817;SDS011;22761;51.542;16.450;2022-12-10T14:50:51;65.63;;;33.73;;
36817;SDS011;22761;51.542;16.450;2022-12-10T14:53:25;62.47;;;32.20;;
36817;SDS011;22761;51.542;16.450;2022-12-10T14:55:53;62.57;;;31.93;;
36817;SDS011;22761;51.542;16.450;2022-12-10T14:58:36;61.20;;;30.97;;
36817;SDS011;22761;51.542;16.450;2022-12-10T15:01:15;63.30;;;30.63;;
36817;SDS011;22761;51.542;16.450;2022-12-10T15:03:44;62.63;;;31.60;;
36817;SDS011;22761;51.542;16.450;2022-12-10T15:06:14;68.42;;;34.05;;
36817;SDS011;22761;51.542;16.450;2022-12-10T15:08:45;62.83;;;31.73;;
36817;SDS011;22761;51.542;16.450;2022-12-10T15:11:15;62.50;;;30.60;;
36817;SDS011;22761;51.542;16.450;2022-12-10T15:13:49;57.83;;;30.50;;
36817;SDS011;22761;51.542;16.450;2022-12-10T15:16:37;54.13;;;28.03;;
36817;SDS011;22761;51.542;16.450;2022-12-10T15:19:09;61.03;;;33.30;;
36817;SDS011;22761;51.542;16.450;2022-12-10T15:21:58;60.40;;;30.23;;
36817;SDS011;22761;51.542;16.450;2022-12-10T15:24:36;63.17;;;31.53;;
36817;SDS011;22761;51.542;16.450;2022-12-10T15:27:17;62.00;;;31.10;;
36817;SDS011;22761;51.542;16.450;2022-12-10T15:29:48;62.93;;;31.97;;
36817;SDS011;22761;51.542;16.450;2022-12-10T15:32:22;64.13;;;31.10;;
36817;SDS011;22761;51.542;16.450;2022-12-10T15:34:54;62.97;;;32.13;;
36817;SDS011;22761;51.542;16.450;2022-12-10T15:37:27;69.37;;;36.33;;
36817;SDS011;22761;51.542;16.450;2022-12-10T15:40:07;77.13;;;37.63;;
36817;SDS011;22761;51.542;16.450;2022-12-10T15:42:50;59.70;;;31.47;;
36817;SDS011;22761;51.542;16.450;2022-12-10T15:45:24;69.32;;;34.88;;
36817;SDS011;22761;51.542;16.450;2022-12-10T15:48:08;67.57;;;34.47;;
36817;SDS011;22761;51.542;16.450;2022-12-10T15:50:40;66.83;;;33.03;;
36817;SDS011;22761;51.542;16.450;2022-12-10T15:53:16;68.33;;;34.43;;
36817;SDS011;22761;51.542;16.450;2022-12-10T15:55:42;63.50;;;32.03;;
36817;SDS011;22761;51.542;16.450;2022-12-10T15:58:10;62.20;;;31.93;;
36817;SDS011;22761;51.542;16.450;2022-12-10T16:00:40;94.52;;;45.23;;
36817;SDS011;22761;51.542;16.450;2022-12-10T16:03:14;64.50;;;32.40;;
36817;SDS011;22761;51.542;16.450;2022-12-10T16:05:46;109.00;;;47.77;;
36817;SDS011;22761;51.542;16.450;2022-12-10T16:08:19;78.50;;;37.90;;
36817;SDS011;22761;51.542;16.450;2022-12-10T16:10:55;88.50;;;44.70;;
36817;SDS011;22761;51.542;16.450;2022-12-10T16:13:28;114.57;;;56.47;;
36817;SDS011;22761;51.542;16.450;2022-12-10T16:16:06;91.53;;;44.80;;
36817;SDS011;22761;51.542;16.450;2022-12-10T16:18:39;205.93;;;96.77;;
36817;SDS011;22761;51.542;16.450;2022-12-10T16:21:07;148.50;;;71.70;;
36817;SDS011;22761;51.542;16.450;2022-12-10T16:23:36;205.70;;;93.30;;
36817;SDS011;22761;51.542;16.450;2022-12-10T16:26:19;143.07;;;69.75;;
36817;SDS011;22761;51.542;16.450;2022-12-10T16:28:49;122.20;;;61.30;;
36817;SDS011;22761;51.542;16.450;2022-12-10T16:31:20;122.90;;;59.42;;
36817;SDS011;22761;51.542;16.450;2022-12-10T16:33:49;157.67;;;72.10;;
36817;SDS011;22761;51.542;16.450;2022-12-10T16:36:19;117.93;;;58.35;;
36817;SDS011;22761;51.542;16.450;2022-12-10T16:38:48;90.23;;;45.37;;
36817;SDS011;22761;51.542;16.450;2022-12-10T16:41:18;106.63;;;53.03;;
36817;SDS011;22761;51.542;16.450;2022-12-10T16:43:50;100.43;;;50.93;;
36817;SDS011;22761;51.542;16.450;2022-12-10T16:46:19;94.97;;;48.10;;
36817;SDS011;22761;51.542;16.450;2022-12-10T16:48:55;98.23;;;48.53;;
36817;SDS011;22761;51.542;16.450;2022-12-10T16:51:29;96.43;;;47.90;;
36817;SDS011;22761;51.542;16.450;2022-12-10T16:54:00;134.80;;;60.30;;